Time;durP1;ratioP1;P1;durP2;ratioP2;P2;SDS_P1;SDS_P2;PMS_P1;PMS_P2;Temp;Humidity;BMP_temperature;BMP_pressure;BME280_temperature;BME280_humidity;BME280_pressure;Samples;Min_cycle;Max_cycle;Signal;HPM_P1;HPM_P2
2022/02/10 00:03:50;;;;;;;1999.90;999.90;;;;;;;3.42;100.00;101391.66;5009005;28;20804;-81
2022/02/10 00:15:40;;;;;;;1999.90;999.90;;;;;;;3.54;100.00;101385.34;5034091;28;20057;-81
2022/02/10 00:18:29;;;;;;;1999.90;999.90;;;;;;;3.52;100.00;101375.84;5035262;28;20389;-81
2022/02/10 00:21:03;;;;;;;1999.90;999.90;;;;;;;3.54;100.00;101374.59;5045544;28;20056;-81
2022/02/10 00:24:03;;;;;;;1999.90;999.90;;;;;;;3.52;100.00;101379.38;5052022;28;20049;-81
2022/02/10 00:34:59;;;;;;;1999.90;999.90;;;;;;;3.66;100.00;101369.34;5043376;28;20085;-81
2022/02/10 00:37:48;;;;;;;1999.90;999.90;;;;;;;3.70;100.00;101359.81;5041449;28;20037;-81
2022/02/10 00:40:22;;;;;;;1999.90;999.90;;;;;;;3.63;100.00;101353.63;5039111;28;20049;-82
2022/02/10 00:42:57;;;;;;;1999.90;999.90;;;;;;;3.69;100.00;101349.25;5036791;28;20048;-81
2022/02/10 00:45:27;;;;;;;1999.90;999.90;;;;;;;3.62;100.00;101348.44;5035811;28;20053;-81
2022/02/10 00:48:02;;;;;;;1999.90;999.90;;;;;;;3.66;100.00;101350.50;5036917;28;20060;-81
2022/02/10 00:50:39;;;;;;;1999.90;999.90;;;;;;;3.61;100.00;101358.41;5049652;28;20076;-81
2022/02/10 00:53:17;;;;;;;1999.90;999.90;;;;;;;3.50;100.00;101342.97;5059749;28;20049;-81
2022/02/10 00:55:50;;;;;;;1999.90;999.90;;;;;;;3.36;100.00;101356.47;5040663;28;20048;-81
2022/02/10 00:58:26;;;;;;;1999.90;999.90;;;;;;;3.42;100.00;101352.09;5035003;28;20052;-81
2022/02/10 01:12:26;;;;;;;1999.90;999.90;;;;;;;3.83;100.00;101342.72;5036810;28;20057;-81
2022/02/10 01:29:36;;;;;;;1999.90;999.90;;;;;;;3.96;100.00;101333.72;5047930;28;20057;-81
2022/02/10 01:32:04;;;;;;;1999.90;999.90;;;;;;;4.04;100.00;101330.75;5036810;28;20049;-81
2022/02/10 01:34:36;;;;;;;1999.90;999.90;;;;;;;4.05;100.00;101323.50;5037111;28;20072;-81
2022/02/10 01:37:09;;;;;;;1999.90;999.90;;;;;;;4.06;100.00;101323.28;5034753;28;20037;-82
2022/02/10 01:39:44;;;;;;;1999.90;999.90;;;;;;;4.05;100.00;101315.44;5031452;28;20049;-81
2022/02/10 01:42:50;;;;;;;1999.90;999.90;;;;;;;4.06;100.00;101308.97;5040566;28;20686;-81
2022/02/10 02:05:14;;;;;;;1999.90;999.90;;;;;;;4.42;100.00;101272.38;5030998;28;20049;-81
2022/02/10 02:07:48;;;;;;;1999.90;999.90;;;;;;;4.40;100.00;101264.50;5035102;28;20057;-82
2022/02/10 02:10:21;;;;;;;1999.90;999.90;;;;;;;4.39;100.00;101267.41;5042221;28;20049;-81
2022/02/10 02:12:56;;;;;;;1999.90;999.90;;;;;;;4.45;100.00;101269.22;5035149;28;20042;-81
2022/02/10 02:15:29;;;;;;;1999.90;999.90;;;;;;;4.50;100.00;101257.75;5034157;28;20057;-81
2022/02/10 02:18:02;;;;;;;1999.90;999.90;;;;;;;4.49;100.00;101254.25;5031294;28;20049;-82
2022/02/10 02:20:35;;;;;;;1999.90;999.90;;;;;;;4.50;100.00;101247.81;5035930;28;20052;-82
2022/02/10 02:23:10;;;;;;;1999.90;999.90;;;;;;;4.46;100.00;101252.03;5033968;28;20049;-82
2022/02/10 02:25:45;;;;;;;1999.90;999.90;;;;;;;4.42;100.00;101240.84;5040024;28;20052;-81
2022/02/10 02:28:18;;;;;;;1999.90;999.90;;;;;;;4.49;100.00;101239.94;5035982;28;20409;-81
2022/02/10 02:30:51;;;;;;;1999.90;999.90;;;;;;;4.62;100.00;101244.38;5042264;28;20482;-82
2022/02/10 02:39:23;;;;;;;1999.90;999.90;;;;;;;4.66;100.00;101230.19;5019914;28;20080;-81
2022/02/10 03:04:48;;;;;;;1999.90;999.90;;;;;;;4.62;100.00;101188.56;5007095;28;20046;-81
2022/02/10 03:07:34;;;;;;;1999.90;999.90;;;;;;;4.63;100.00;101192.91;5038655;28;20057;-82
2022/02/10 03:10:24;;;;;;;1999.90;999.90;;;;;;;4.60;100.00;101186.09;5035685;28;20424;-82
2022/02/10 03:12:59;;;;;;;1999.90;999.90;;;;;;;4.62;100.00;101180.47;5047198;28;20051;-81
2022/02/10 03:15:39;;;;;;;1999.90;999.90;;;;;;;4.63;100.00;101175.91;5037189;28;20041;-82
2022/02/10 03:18:23;;;;;;;1999.90;999.90;;;;;;;4.64;100.00;101178.41;5030258;28;20057;-82
2022/02/10 03:21:19;;;;;;;1999.90;999.90;;;;;;;4.67;100.00;101169.00;5028369;28;20053;-81
2022/02/10 04:01:04;;;;;;;1999.90;999.90;;;;;;;4.57;100.00;101145.28;5045419;28;20049;-82
2022/02/10 04:04:01;;;;;;;1999.90;999.90;;;;;;;4.50;100.00;101145.41;5032529;28;20057;-82
2022/02/10 04:06:51;;;;;;;1999.90;999.90;;;;;;;4.48;100.00;101133.19;5033777;28;20501;-81
2022/02/10 04:09:52;;;;;;;1999.90;999.90;;;;;;;4.50;100.00;101148.09;5031748;28;20053;-82
2022/02/10 04:15:22;;;;;;;1999.90;999.90;;;;;;;4.48;100.00;101130.50;5040428;28;20049;-81
2022/02/10 04:18:20;;;;;;;1999.90;999.90;;;;;;;4.47;100.00;101126.16;5036547;28;20036;-81
2022/02/10 04:21:05;;;;;;;1999.90;999.90;;;;;;;4.43;100.00;101131.16;5036119;28;20409;-82
2022/02/10 04:23:44;;;;;;;1999.90;999.90;;;;;;;4.43;100.00;101115.84;5032273;28;20053;-82
2022/02/10 04:26:28;;;;;;;1999.90;999.90;;;;;;;4.41;100.00;101120.63;5028145;28;20049;-82
2022/02/10 04:43:44;;;;;;;1999.90;999.90;;;;;;;4.32;100.00;101089.66;5010747;28;20422;-81
2022/02/10 04:58:01;;;;;;;1999.90;999.90;;;;;;;4.31;100.00;101088.03;5044181;28;20049;-83
2022/02/10 05:00:44;;;;;;;1999.90;999.90;;;;;;;4.34;100.00;101084.06;5044704;28;20044;-82
2022/02/10 05:04:01;;;;;;;1999.90;999.90;;;;;;;4.30;100.00;101070.19;5050111;28;20052;-82
2022/02/10 05:13:01;;;;;;;1999.90;999.90;;;;;;;4.23;100.00;101058.69;5040858;28;20050;-81
2022/02/10 05:18:39;;;;;;;1999.90;999.90;;;;;;;4.22;100.00;101057.06;5035368;28;20059;-82
2022/02/10 05:21:41;;;;;;;1999.90;999.90;;;;;;;4.26;100.00;101052.84;5039910;28;20053;-82
2022/02/10 05:24:38;;;;;;;1999.90;999.90;;;;;;;4.19;100.00;101060.22;5041595;28;20485;-81
2022/02/10 05:35:28;;;;;;;1999.90;999.90;;;;;;;4.29;100.00;101051.56;5007371;28;20049;-81
2022/02/10 05:38:07;;;;;;;1999.90;999.90;;;;;;;4.30;100.00;101050.53;5038670;28;20048;-82
2022/02/10 05:41:17;;;;;;;1999.90;999.90;;;;;;;4.18;100.00;101043.19;5038646;28;20057;-82
2022/02/10 05:43:48;;;;;;;1999.90;999.90;;;;;;;4.16;100.00;101037.25;5037078;28;20056;-82
2022/02/10 05:46:27;;;;;;;1999.90;999.90;;;;;;;4.11;100.00;101026.31;5031421;28;20037;-81
2022/02/10 05:52:06;;;;;;;1999.90;999.90;;;;;;;4.17;100.00;101027.28;5030520;28;20053;-82
2022/02/10 05:54:48;;;;;;;1999.90;999.90;;;;;;;4.24;100.00;101031.53;5032767;28;20366;-81
2022/02/10 05:57:40;;;;;;;1999.90;999.90;;;;;;;4.17;100.00;101028.13;5039236;28;20397;-82
2022/02/10 06:51:52;;;;;;;1999.90;999.90;;;;;;;4.16;100.00;101017.56;5036270;28;20053;-81
2022/02/10 06:54:42;;;;;;;1999.90;999.90;;;;;;;4.07;100.00;101004.41;5042185;28;20053;-80
2022/02/10 06:57:48;;;;;;;1999.90;999.90;;;;;;;4.12;100.00;101016.38;5037890;28;20049;-82
2022/02/10 07:03:41;;;;;;;1999.90;999.90;;;;;;;4.09;100.00;101009.56;5034653;28;20044;-82
2022/02/10 07:06:26;;;;;;;1999.90;999.90;;;;;;;4.15;100.00;101014.03;5030525;28;20050;-80
2022/02/10 07:12:29;;;;;;;1999.90;999.90;;;;;;;4.15;100.00;101019.41;4975592;28;20054;-82
2022/02/10 07:15:28;;;;;;;1999.90;999.90;;;;;;;4.14;100.00;101015.06;5038733;28;20079;-81
2022/02/10 07:49:53;;;;;;;1999.90;999.90;;;;;;;4.24;100.00;101001.09;5035749;28;20072;-80
2022/02/10 07:55:38;;;;;;;1999.90;999.90;;;;;;;4.31;100.00;101009.88;4999041;28;20049;-79
2022/02/10 07:58:26;;;;;;;1999.90;999.90;;;;;;;4.29;100.00;101006.59;5024800;28;20056;-79
2022/02/10 08:04:28;;;;;;;1999.90;999.90;;;;;;;4.26;100.00;100991.69;5013920;28;20050;-80
2022/02/10 08:04:43;;;;;;;1999.90;999.90;;;;;;;4.32;100.00;101013.38;5014444;28;20060;-80
2022/02/10 08:50:33;;;;;;;1999.90;999.90;;;;;;;4.52;100.00;100978.06;5016204;28;20595;-77
2022/02/10 08:56:04;;;;;;;1999.90;999.90;;;;;;;4.54;100.00;100990.25;4985779;28;20045;-78
2022/02/10 08:59:05;;;;;;;1999.90;999.90;;;;;;;4.64;100.00;100992.38;5019607;28;20058;-77
2022/02/10 09:02:11;;;;;;;1999.90;999.90;;;;;;;4.72;100.00;100994.75;5021103;28;20061;-78
2022/02/10 09:04:56;;;;;;;1999.90;999.90;;;;;;;4.75;100.00;100986.19;5017653;28;20607;-77
2022/02/10 09:16:32;;;;;;;1999.90;999.90;;;;;;;4.69;100.00;100976.31;5018084;28;20068;-78
2022/02/10 09:56:25;;;;;;;1999.90;999.90;;;;;;;5.40;100.00;100999.72;5023122;28;20148;-76
2022/02/10 09:59:09;;;;;;;1999.90;999.90;;;;;;;5.38;100.00;101004.56;5019519;28;20049;-80
2022/02/10 10:02:00;;;;;;;1999.90;999.90;;;;;;;5.53;100.00;100987.88;5019624;28;20049;-78
2022/02/10 10:04:40;;;;;;;1999.90;999.90;;;;;;;5.54;100.00;100989.53;5015920;28;20053;-79
2022/02/10 10:07:27;;;;;;;1999.90;999.90;;;;;;;5.57;100.00;100994.44;5016391;28;20057;-78
2022/02/10 10:10:36;;;;;;;1999.90;999.90;;;;;;;5.70;100.00;100996.03;5015999;28;20053;-79
2022/02/10 10:13:31;;;;;;;1999.90;999.90;;;;;;;5.56;100.00;101000.88;5026042;28;20064;-79
2022/02/10 10:16:34;;;;;;;1999.90;999.90;;;;;;;5.56;100.00;101004.41;5013200;28;20053;-78
2022/02/10 10:19:21;;;;;;;1999.90;999.90;;;;;;;5.49;100.00;100997.50;5017505;28;20049;-79
2022/02/10 10:22:03;;;;;;;1999.90;999.90;;;;;;;5.56;100.00;100988.19;5015019;28;20068;-78
2022/02/10 10:27:54;;;;;;;1999.90;999.90;;;;;;;5.60;100.00;101000.16;5019614;28;20057;-78
2022/02/10 10:51:29;;;;;;;1999.90;999.90;;;;;;;5.32;100.00;100949.66;4952810;28;20062;-77
2022/02/10 10:54:07;;;;;;;1999.90;999.90;;;;;;;5.51;100.00;100942.22;4986829;28;20060;-79
2022/02/10 10:56:40;;;;;;;1999.90;999.90;;;;;;;5.56;100.00;100938.78;5009271;28;21246;-79
2022/02/10 10:59:39;;;;;;;1999.90;999.90;;;;;;;5.65;100.00;100931.13;5018317;28;20048;-78
2022/02/10 11:38:17;;;;;;;1999.90;999.90;;;;;;;6.11;100.00;100956.34;5020476;28;20060;-79
2022/02/10 11:41:34;;;;;;;1999.90;999.90;;;;;;;6.12;100.00;100956.09;5022118;28;20049;-76
2022/02/10 11:44:51;;;;;;;1999.90;999.90;;;;;;;6.12;100.00;100961.50;5021857;28;20045;-79
2022/02/10 11:48:10;;;;;;;1999.90;999.90;;;;;;;5.91;100.00;100973.78;5014913;28;21550;-78
2022/02/10 12:00:19;;;;;;;1999.90;999.90;;;;;;;6.08;100.00;100946.00;5019030;28;20054;-79
2022/02/10 13:27:59;;;;;;;1999.90;999.90;;;;;;;5.97;100.00;100982.81;5018832;28;20088;-78
2022/02/10 14:13:34;;;;;;;1999.90;999.90;;;;;;;5.76;100.00;100993.19;5007732;28;20061;-77
2022/02/10 14:19:11;;;;;;;1952.18;999.90;;;;;;;5.79;100.00;100994.63;5012768;28;20053;-80
2022/02/10 14:22:00;;;;;;;1926.30;999.90;;;;;;;5.83;100.00;101000.34;5010893;28;20049;-79
2022/02/10 14:27:20;;;;;;;1860.90;999.90;;;;;;;5.89;100.00;101008.31;5011576;28;20064;-79
2022/02/10 14:29:53;;;;;;;1761.45;999.90;;;;;;;6.02;100.00;101001.84;5012733;28;20060;-79
2022/02/10 14:32:30;;;;;;;1750.18;999.90;;;;;;;5.98;100.00;101005.25;5011927;28;20702;-79
2022/02/10 14:35:12;;;;;;;1740.00;999.90;;;;;;;5.79;100.00;101016.22;5012013;28;20049;-81
2022/02/10 14:38:08;;;;;;;1652.80;999.90;;;;;;;5.54;100.00;101011.13;5012102;28;20467;-78
2022/02/10 15:18:34;;;;;;;1999.90;999.90;;;;;;;4.63;100.00;100996.13;5018694;28;20057;-77
2022/02/10 15:21:30;;;;;;;1999.90;999.90;;;;;;;4.56;100.00;100988.13;5014117;28;20489;-78
2022/02/10 15:50:32;;;;;;;1579.22;999.90;;;;;;;2.96;100.00;101042.06;5052965;27;20433;-81
2022/02/10 15:56:26;;;;;;;1715.97;999.90;;;;;;;2.93;100.00;101030.94;5024145;27;20061;-79
2022/02/10 16:18:48;;;;;;;1999.90;999.90;;;;;;;3.19;100.00;101027.16;5046867;28;20681;-80
2022/02/10 16:21:27;;;;;;;1999.90;999.90;;;;;;;3.27;100.00;101040.34;5042237;28;20446;-79
2022/02/10 16:24:13;;;;;;;1999.90;999.90;;;;;;;3.28;100.00;101058.13;5037074;28;20505;-80
2022/02/10 16:26:56;;;;;;;1999.90;999.90;;;;;;;3.28;100.00;101046.56;5035548;28;20048;-79
2022/02/10 16:29:32;;;;;;;1999.90;999.90;;;;;;;3.33;100.00;101044.00;5031908;28;20049;-80
2022/02/10 16:32:06;;;;;;;1999.90;999.90;;;;;;;3.31;100.00;101049.59;5034450;28;20489;-81
2022/02/10 16:34:34;;;;;;;1999.90;999.90;;;;;;;3.28;100.00;101043.88;5036308;28;20057;-79
2022/02/10 16:37:09;;;;;;;1999.90;999.90;;;;;;;3.20;100.00;101042.28;5046447;28;20700;-80
2022/02/10 16:39:44;;;;;;;1999.90;999.90;;;;;;;3.30;100.00;101034.53;5037464;28;20052;-80
2022/02/10 16:42:14;;;;;;;1999.90;999.90;;;;;;;3.29;100.00;101049.00;5039194;28;20049;-79
2022/02/10 16:44:48;;;;;;;1999.90;999.90;;;;;;;3.24;100.00;101038.09;5037214;28;20056;-79
2022/02/10 16:47:16;;;;;;;1999.90;999.90;;;;;;;3.27;100.00;101037.63;5040664;28;20052;-79
2022/02/10 16:49:52;;;;;;;1999.90;999.90;;;;;;;3.26;100.00;101043.25;5035847;28;20429;-80
2022/02/10 16:52:24;;;;;;;1999.90;999.90;;;;;;;3.32;100.00;101047.75;5032632;28;20056;-81
2022/02/10 16:55:10;;;;;;;1999.90;999.90;;;;;;;3.25;100.00;101049.69;5007299;28;20056;-81
2022/02/10 16:57:50;;;;;;;1999.90;999.90;;;;;;;3.16;100.00;101046.44;5038977;28;20055;-80
2022/02/10 17:00:50;;;;;;;1999.90;999.90;;;;;;;3.15;100.00;101045.63;5028173;28;20104;-79
2022/02/10 17:03:38;;;;;;;1999.90;999.90;;;;;;;3.16;100.00;101060.75;5023365;28;20394;-80
2022/02/10 17:17:46;;;;;;;1999.90;999.90;;;;;;;3.16;100.00;101068.81;5021161;28;20092;-78
2022/02/10 17:20:39;;;;;;;1999.90;999.90;;;;;;;3.17;100.00;101075.81;5020853;28;20049;-80
2022/02/10 17:26:29;;;;;;;1999.90;999.90;;;;;;;3.12;100.00;101083.75;5020858;28;20057;-81
2022/02/10 17:29:12;;;;;;;1999.90;999.90;;;;;;;3.12;100.00;101082.91;5025642;28;20056;-80
2022/02/10 17:32:04;;;;;;;1999.90;999.90;;;;;;;3.17;100.00;101089.25;5021822;28;20057;-79
2022/02/10 17:34:51;;;;;;;1999.90;999.90;;;;;;;3.05;100.00;101086.47;5045187;28;20053;-79
2022/02/10 17:41:19;;;;;;;1999.90;999.90;;;;;;;3.08;100.00;101089.75;5023334;28;20489;-80
2022/02/10 17:46:08;;;;;;;1999.90;999.90;;;;;;;3.03;100.00;101093.94;5027101;28;20095;-78
2022/02/10 17:51:46;;;;;;;1999.90;999.90;;;;;;;3.10;100.00;101098.44;5026883;28;20056;-78
2022/02/10 17:54:20;;;;;;;1999.90;999.90;;;;;;;3.06;100.00;101106.91;4995717;28;20510;-80
2022/02/10 17:56:48;;;;;;;1999.90;999.90;;;;;;;2.96;100.00;101103.91;5019598;28;20308;-79
2022/02/10 17:59:23;;;;;;;1999.90;999.90;;;;;;;2.92;100.00;101107.28;5029308;28;20406;-79
2022/02/10 18:01:57;;;;;;;1999.90;999.90;;;;;;;2.96;100.00;101113.84;5020046;28;20061;-79
2022/02/10 18:04:30;;;;;;;1999.90;999.90;;;;;;;2.95;100.00;101109.50;5021141;28;20053;-79
2022/02/10 18:07:05;;;;;;;1999.90;999.90;;;;;;;2.87;100.00;101116.81;5022234;28;20061;-80
2022/02/10 18:10:12;;;;;;;1999.90;999.90;;;;;;;2.85;100.00;101110.00;5024960;28;20057;-80
2022/02/10 18:15:54;;;;;;;1999.90;999.90;;;;;;;2.78;100.00;101103.84;4921236;28;20106;-80
2022/02/10 18:18:36;;;;;;;1999.90;999.90;;;;;;;2.74;100.00;101099.94;4944034;28;20066;-79
2022/02/10 18:21:26;;;;;;;1999.90;999.90;;;;;;;2.69;100.00;101097.91;4993756;28;20092;-77
2022/02/10 18:24:18;;;;;;;1999.90;999.90;;;;;;;2.70;100.00;101091.50;5019038;28;20541;-78
2022/02/10 18:27:17;;;;;;;1999.90;999.90;;;;;;;2.65;100.00;101108.28;5028960;28;20053;-79
2022/02/10 18:30:13;;;;;;;1999.90;999.90;;;;;;;2.61;100.00;101103.53;5018844;28;20394;-80
2022/02/10 19:07:02;;;;;;;1999.90;999.90;;;;;;;2.49;100.00;101112.28;5024718;28;20186;-78
2022/02/10 19:09:40;;;;;;;1999.90;999.90;;;;;;;2.37;100.00;101108.63;5021959;28;20060;-79
2022/02/10 19:12:19;;;;;;;1999.90;999.90;;;;;;;2.27;100.00;101105.59;5026900;28;20041;-79
2022/02/10 19:14:57;;;;;;;1999.90;999.90;;;;;;;2.51;100.00;101122.81;5032687;28;20056;-79
2022/02/10 19:17:30;;;;;;;1999.90;999.90;;;;;;;2.48;100.00;101134.00;5021190;28;20454;-80
2022/02/10 19:20:04;;;;;;;1999.90;999.90;;;;;;;2.38;100.00;101134.47;5019346;28;20555;-78
2022/02/10 19:22:38;;;;;;;1999.90;999.90;;;;;;;2.26;100.00;101118.19;5020975;28;20053;-80
2022/02/10 19:25:08;;;;;;;1999.90;999.90;;;;;;;2.31;100.00;101122.94;5019724;28;20064;-80
2022/02/10 19:27:43;;;;;;;1999.90;999.90;;;;;;;2.26;100.00;101115.50;5016830;28;20053;-80
2022/02/10 19:30:19;;;;;;;1999.90;999.90;;;;;;;2.26;100.00;101126.22;5028501;28;20528;-79
2022/02/10 19:32:56;;;;;;;1999.90;999.90;;;;;;;2.15;100.00;101118.84;5019690;28;20059;-80
2022/02/10 19:35:31;;;;;;;1999.90;999.90;;;;;;;2.17;100.00;101117.59;5018409;28;20045;-80
2022/02/10 19:38:06;;;;;;;1999.90;999.90;;;;;;;2.15;100.00;101111.59;5016869;28;20354;-78
2022/02/10 19:40:40;;;;;;;1999.90;999.90;;;;;;;2.22;100.00;101130.38;5023926;28;20049;-81
2022/02/10 19:43:14;;;;;;;1999.90;999.90;;;;;;;2.28;100.00;101123.34;5018982;28;20502;-80
2022/02/10 19:45:48;;;;;;;1999.90;999.90;;;;;;;2.20;100.00;101133.28;5026580;28;20053;-80
2022/02/10 19:48:22;;;;;;;1999.90;999.90;;;;;;;2.17;100.00;101136.41;5018560;28;20056;-80
2022/02/10 19:50:52;;;;;;;1999.90;999.90;;;;;;;2.12;100.00;101130.84;5017949;28;20512;-80
2022/02/10 19:53:25;;;;;;;1999.90;999.90;;;;;;;2.15;100.00;101140.34;5019499;28;20057;-78
2022/02/10 19:56:00;;;;;;;1999.90;999.90;;;;;;;2.19;100.00;101145.06;4992579;28;20064;-80
2022/02/10 19:58:28;;;;;;;1999.90;999.90;;;;;;;2.16;100.00;101145.50;5034025;28;20417;-79
2022/02/10 20:01:02;;;;;;;1999.90;999.90;;;;;;;2.14;100.00;101152.94;5021268;28;20049;-80
2022/02/10 20:03:39;;;;;;;1999.90;999.90;;;;;;;2.06;100.00;101144.28;5016863;28;20559;-79
2022/02/10 20:06:12;;;;;;;1999.90;999.90;;;;;;;2.11;100.00;101155.22;5018315;28;20537;-80
2022/02/10 20:08:40;;;;;;;1999.90;999.90;;;;;;;2.07;100.00;101143.25;5019520;28;20053;-79
2022/02/10 20:11:11;;;;;;;1999.90;999.90;;;;;;;2.10;100.00;101142.81;5019325;28;20526;-79
2022/02/10 20:13:44;;;;;;;1999.90;999.90;;;;;;;2.04;100.00;101145.34;5025479;28;20437;-80
2022/02/10 20:16:17;;;;;;;1999.90;999.90;;;;;;;2.02;100.00;101146.59;5020543;28;20045;-80
2022/02/10 20:18:50;;;;;;;1999.90;999.90;;;;;;;1.92;100.00;101146.19;5028525;28;20053;-78
2022/02/10 20:21:24;;;;;;;1999.90;999.90;;;;;;;1.98;100.00;101145.34;5020401;28;20059;-78
2022/02/10 20:23:57;;;;;;;1999.90;999.90;;;;;;;1.91;100.00;101141.88;5022132;28;20060;-79
2022/02/10 20:26:32;;;;;;;1999.90;999.90;;;;;;;1.92;100.00;101138.13;5015488;28;20057;-80
2022/02/10 20:29:05;;;;;;;1999.90;999.90;;;;;;;1.88;100.00;101140.44;5025916;28;20607;-79
2022/02/10 20:31:39;;;;;;;1999.90;999.90;;;;;;;1.82;100.00;101150.16;5019272;28;20046;-79
2022/02/10 20:34:15;;;;;;;1999.90;999.90;;;;;;;1.70;100.00;101139.22;5017422;28;20382;-78
2022/02/10 20:36:48;;;;;;;1999.90;999.90;;;;;;;1.75;100.00;101148.50;5022909;28;20387;-79
2022/02/10 20:39:25;;;;;;;1999.90;999.90;;;;;;;1.69;100.00;101144.81;5019464;28;20068;-79
2022/02/10 20:42:02;;;;;;;1999.90;999.90;;;;;;;1.70;100.00;101149.13;5024730;28;20436;-79
2022/02/10 20:44:31;;;;;;;1999.90;999.90;;;;;;;1.64;100.00;101149.97;5028781;28;20386;-80
2022/02/10 20:47:04;;;;;;;1999.90;999.90;;;;;;;1.62;100.00;101144.00;5026235;28;20053;-78
2022/02/10 20:49:37;;;;;;;1999.90;999.90;;;;;;;1.59;100.00;101139.03;5023459;28;20497;-78
2022/02/10 20:52:06;;;;;;;1999.90;999.90;;;;;;;1.62;100.00;101142.13;5024261;28;20053;-79
2022/02/10 20:54:39;;;;;;;1999.90;999.90;;;;;;;1.64;100.00;101142.75;4999862;28;20045;-79
2022/02/10 20:57:14;;;;;;;1999.90;999.90;;;;;;;1.69;100.00;101132.19;5018079;28;20074;-79
2022/02/10 20:59:48;;;;;;;1999.90;999.90;;;;;;;1.73;100.00;101132.63;5020579;28;20455;-79
2022/02/10 21:02:30;;;;;;;1999.90;999.90;;;;;;;1.66;100.00;101132.63;5025391;28;20041;-79
2022/02/10 21:05:15;;;;;;;1999.90;999.90;;;;;;;1.68;100.00;101137.78;5033664;28;20679;-78
2022/02/10 21:07:57;;;;;;;1999.90;999.90;;;;;;;1.67;100.00;101141.47;5023682;28;20053;-79
2022/02/10 21:10:27;;;;;;;1999.90;999.90;;;;;;;1.59;100.00;101147.91;5026917;28;20053;-80
2022/02/10 21:13:02;;;;;;;1999.90;999.90;;;;;;;1.56;100.00;101142.97;5022961;28;20607;-77
2022/02/10 21:15:41;;;;;;;1999.90;999.90;;;;;;;1.58;100.00;101129.34;5027174;28;20653;-79
2022/02/10 21:18:15;;;;;;;1999.90;999.90;;;;;;;1.59;100.00;101121.09;5027126;28;20053;-80
2022/02/10 21:20:50;;;;;;;1999.90;999.90;;;;;;;1.58;100.00;101137.41;5027378;28;20071;-79
2022/02/10 21:23:28;;;;;;;1999.90;999.90;;;;;;;1.73;100.00;101132.63;5027258;28;20060;-78
2022/02/10 21:26:02;;;;;;;1999.90;999.90;;;;;;;1.77;100.00;101133.00;5018397;28;20084;-78
2022/02/10 21:28:39;;;;;;;1999.90;999.90;;;;;;;1.74;100.00;101133.44;5021497;28;20054;-79
2022/02/10 21:31:12;;;;;;;1999.90;999.90;;;;;;;1.67;100.00;101134.28;5022278;28;20525;-79
2022/02/10 21:33:58;;;;;;;1999.90;999.90;;;;;;;1.60;100.00;101132.63;5028382;28;20421;-79
2022/02/10 21:39:37;;;;;;;1999.90;999.90;;;;;;;1.53;100.00;101128.13;5022572;28;20061;-79
2022/02/10 21:46:44;;;;;;;1999.90;999.90;;;;;;;1.44;100.00;101139.28;5019790;28;20049;-78
2022/02/10 21:52:37;;;;;;;1999.90;999.90;;;;;;;1.45;100.00;101124.81;5045825;28;20573;-78
2022/02/10 21:54:53;;;;;;;1999.90;999.90;;;;;;;1.56;100.00;101142.13;5017959;28;20044;-78
2022/02/10 22:00:49;;;;;;;1999.90;999.90;;;;;;;1.41;100.00;101140.50;4990312;28;20493;-79
2022/02/10 22:03:46;;;;;;;1999.90;999.90;;;;;;;1.35;100.00;101135.94;5020877;28;20057;-79
2022/02/10 22:18:31;;;;;;;1999.90;999.90;;;;;;;1.29;100.00;101121.53;5020884;28;20061;-78
2022/02/10 22:21:00;;;;;;;1999.90;999.90;;;;;;;1.25;100.00;101122.97;5020669;28;20057;-78
2022/02/10 22:23:29;;;;;;;1999.90;999.90;;;;;;;1.32;100.00;101125.66;5022105;28;20056;-78
2022/02/10 22:26:05;;;;;;;1999.90;999.90;;;;;;;1.24;100.00;101129.34;5022843;28;20048;-78
2022/02/10 22:28:47;;;;;;;1999.90;999.90;;;;;;;1.23;100.00;101130.41;5025288;28;20120;-79
2022/02/10 22:31:32;;;;;;;1999.90;999.90;;;;;;;1.39;100.00;101128.34;5014486;28;20065;-78
2022/02/10 22:34:19;;;;;;;1999.90;999.90;;;;;;;1.21;100.00;101113.69;5016534;28;20049;-79
2022/02/10 22:36:57;;;;;;;1999.90;999.90;;;;;;;1.38;100.00;101132.03;5021867;28;20057;-79
2022/02/10 22:39:36;;;;;;;1999.90;999.90;;;;;;;1.23;100.00;101135.78;5024451;28;20516;-78
2022/02/10 22:42:10;;;;;;;1999.90;999.90;;;;;;;1.15;100.00;101111.84;5019348;28;20064;-79
2022/02/10 22:44:38;;;;;;;1999.90;999.90;;;;;;;1.37;100.00;101133.91;5023625;28;20060;-77
2022/02/10 22:47:12;;;;;;;1999.90;999.90;;;;;;;1.38;100.00;101138.22;5022161;28;20064;-78
2022/02/10 22:49:46;;;;;;;1999.90;999.90;;;;;;;1.34;100.00;101137.81;5021830;28;20042;-79
2022/02/10 22:52:19;;;;;;;1999.90;999.90;;;;;;;1.27;100.00;101128.97;5026728;28;20052;-78
2022/02/10 22:54:52;;;;;;;1999.90;999.90;;;;;;;1.25;100.00;101133.69;5039312;28;20061;-76
2022/02/10 22:57:25;;;;;;;1999.90;999.90;;;;;;;1.36;100.00;101127.69;5039015;28;20049;-77
2022/02/10 23:00:02;;;;;;;1999.90;999.90;;;;;;;1.40;100.00;101138.84;5045682;28;20047;-76
2022/02/10 23:02:35;;;;;;;1999.90;999.90;;;;;;;1.37;100.00;101136.59;5046469;28;20409;-77
2022/02/10 23:05:10;;;;;;;1999.90;999.90;;;;;;;1.39;100.00;101133.69;5039268;28;20424;-78
2022/02/10 23:07:38;;;;;;;1999.90;999.90;;;;;;;1.30;100.00;101133.09;5043136;28;20049;-78
2022/02/10 23:12:58;;;;;;;1999.90;999.90;;;;;;;1.27;100.00;101130.81;5044166;28;20052;-78
2022/02/10 23:15:37;;;;;;;1999.90;999.90;;;;;;;1.24;100.00;101123.19;5035995;28;20056;-77
2022/02/10 23:18:09;;;;;;;1999.90;999.90;;;;;;;1.21;100.00;101118.22;5043107;28;20049;-78
2022/02/10 23:20:44;;;;;;;1999.90;999.90;;;;;;;1.25;100.00;101122.97;5038904;28;20053;-78
2022/02/10 23:23:20;;;;;;;1999.90;999.90;;;;;;;1.23;100.00;101122.38;5041405;28;20044;-77
2022/02/10 23:25:51;;;;;;;1999.90;999.90;;;;;;;1.31;100.00;101119.47;5047588;28;20052;-77
2022/02/10 23:28:28;;;;;;;1999.90;999.90;;;;;;;1.26;100.00;101124.63;5038084;28;20064;-78
2022/02/10 23:31:03;;;;;;;1999.90;999.90;;;;;;;1.34;100.00;101124.41;5037828;28;20045;-77
2022/02/10 23:33:38;;;;;;;1999.90;999.90;;;;;;;1.34;100.00;101123.56;5039266;28;20052;-77
2022/02/10 23:36:41;;;;;;;1999.90;999.90;;;;;;;1.38;100.00;101119.44;5039606;28;20053;-78
2022/02/10 23:39:19;;;;;;;1999.90;999.90;;;;;;;1.46;100.00;101127.28;5041502;28;20048;-77
2022/02/10 23:44:47;;;;;;;1999.90;999.90;;;;;;;1.47;100.00;101125.44;5045665;28;20033;-77
2022/02/10 23:47:22;;;;;;;1999.90;999.90;;;;;;;1.49;100.00;101118.84;5040310;28;20041;-78
2022/02/10 23:49:56;;;;;;;1999.90;999.90;;;;;;;1.52;100.00;101121.09;5034473;28;20057;-77
2022/02/10 23:52:30;;;;;;;1999.90;999.90;;;;;;;1.45;100.00;101119.44;5044643;28;20049;-77
2022/02/10 23:55:06;;;;;;;1999.90;999.90;;;;;;;1.43;100.00;101116.16;5047324;28;20519;-77
2022/02/10 23:57:48;;;;;;;1999.90;999.90;;;;;;;1.37;100.00;101128.53;5039498;28;20044;-77
